createdAt,value
2023-01-18T00:01:48.412Z,92.52
2023-01-18T00:04:51.033Z,92.80
2023-01-18T00:07:53.501Z,92.21
2023-01-18T00:11:05.854Z,92.67
2023-01-18T00:14:10.685Z,92.77
2023-01-18T00:17:12.906Z,92.81
2023-01-18T00:20:15.352Z,92.75
2023-01-18T00:23:17.670Z,92.69
2023-01-18T00:26:20.111Z,92.27
2023-01-18T00:29:22.381Z,92.80
2023-01-18T00:32:24.910Z,92.55
2023-01-18T00:35:31.173Z,92.53
2023-01-18T00:38:35.481Z,92.60
2023-01-18T00:41:57.708Z,92.39
2023-01-18T00:45:00.014Z,92.52
2023-01-18T00:48:03.443Z,92.62
2023-01-18T00:51:07.074Z,92.63
2023-01-18T00:54:14.472Z,92.45
2023-01-18T00:57:19.892Z,92.14
2023-01-18T01:00:23.790Z,92.37
2023-01-18T01:03:27.270Z,92.42
2023-01-18T01:06:46.785Z,92.13
2023-01-18T01:09:51.639Z,92.43
2023-01-18T01:13:12.751Z,92.42
2023-01-18T01:16:36.526Z,92.39
2023-01-18T01:19:57.603Z,92.38
2023-01-18T01:23:30.171Z,92.71
2023-01-18T01:26:32.479Z,92.85
2023-01-18T01:29:34.733Z,92.55
2023-01-18T01:32:36.997Z,91.63
2023-01-18T01:35:39.477Z,91.75
2023-01-18T01:38:42.351Z,91.65
2023-01-18T01:41:44.757Z,91.40
2023-01-18T01:44:50.313Z,91.83
2023-01-18T01:47:57.348Z,91.72
2023-01-18T01:50:59.770Z,91.40
2023-01-18T01:54:04.635Z,91.47
2023-01-18T01:57:14.455Z,92.16
2023-01-18T02:00:19.715Z,92.18
2023-01-18T02:03:24.317Z,92.23
2023-01-18T02:06:37.671Z,91.87
2023-01-18T02:09:41.027Z,92.22
2023-01-18T02:12:49.122Z,92.14
2023-01-18T02:16:09.072Z,92.33
2023-01-18T02:19:39.139Z,91.97
2023-01-18T02:23:07.319Z,91.66
2023-01-18T02:26:27.837Z,91.83
2023-01-18T02:29:49.223Z,91.17
2023-01-18T02:33:03.382Z,91.83
2023-01-18T02:36:06.554Z,92.23
2023-01-18T02:39:50.583Z,92.53
2023-01-18T02:43:11.393Z,92.94
2023-01-18T02:46:30.841Z,93.33
2023-01-18T02:49:33.364Z,92.96
2023-01-18T02:52:51.203Z,93.21
2023-01-18T02:55:55.931Z,92.79
2023-01-18T02:59:13.278Z,92.39
2023-01-18T03:02:18.815Z,92.21
2023-01-18T03:05:24.574Z,92.37
2023-01-18T03:08:40.682Z,92.61
2023-01-18T03:11:59.650Z,92.14
2023-01-18T03:15:17.398Z,92.40
2023-01-18T03:19:05.898Z,92.21
2023-01-18T03:22:08.633Z,92.36
2023-01-18T03:25:14.947Z,92.06
2023-01-18T03:28:42.556Z,92.05
2023-01-18T03:32:08.107Z,92.09
2023-01-18T03:35:16.449Z,92.34
2023-01-18T03:38:20.497Z,92.54
2023-01-18T03:41:26.978Z,92.31
2023-01-18T03:44:37.289Z,92.70
2023-01-18T03:47:41.395Z,92.47
2023-01-18T03:50:51.970Z,91.79
2023-01-18T03:54:15.370Z,91.17
2023-01-18T03:57:29.942Z,91.52
2023-01-18T04:00:32.280Z,91.84
2023-01-18T04:03:38.934Z,91.88
2023-01-18T04:06:44.706Z,91.98
2023-01-18T04:09:46.909Z,91.62
2023-01-18T04:12:50.572Z,91.20
2023-01-18T04:15:55.972Z,90.90
2023-01-18T04:18:58.230Z,91.38
2023-01-18T04:22:03.681Z,91.85
2023-01-18T04:25:06.406Z,91.83
2023-01-18T04:28:08.608Z,92.02
2023-01-18T04:31:11.031Z,92.13
2023-01-18T04:34:13.320Z,92.25
2023-01-18T04:37:15.592Z,92.68
2023-01-18T04:40:17.971Z,92.24
2023-01-18T04:43:20.199Z,92.83
2023-01-18T04:46:22.411Z,93.03
2023-01-18T04:49:27.633Z,93.21
2023-01-18T04:52:32.233Z,92.90
2023-01-18T04:55:34.482Z,93.09
2023-01-18T04:58:37.518Z,93.38
2023-01-18T05:01:39.774Z,92.91
2023-01-18T05:04:47.384Z,92.62
2023-01-18T05:07:52.836Z,92.69
2023-01-18T05:11:03.841Z,92.80
2023-01-18T05:14:07.242Z,93.12
2023-01-18T05:17:09.581Z,92.96
2023-01-18T05:20:12.589Z,93.01
2023-01-18T05:23:15.975Z,92.70
2023-01-18T05:26:22.293Z,92.93
2023-01-18T05:29:25.103Z,93.40
2023-01-18T05:32:27.504Z,93.09
2023-01-18T05:35:29.798Z,93.25
2023-01-18T05:38:32.079Z,93.39
2023-01-18T05:41:37.407Z,93.30
2023-01-18T05:44:39.658Z,93.83
2023-01-18T05:47:41.912Z,93.47
2023-01-18T05:50:46.445Z,93.73
2023-01-18T05:53:48.978Z,93.91
2023-01-18T05:56:51.278Z,93.66
2023-01-18T05:59:53.545Z,93.25
2023-01-18T06:02:56.200Z,92.61
2023-01-18T06:05:59.336Z,92.52
2023-01-18T06:09:02.236Z,91.46
2023-01-18T06:12:10.223Z,92.00
2023-01-18T06:15:13.195Z,92.46
2023-01-18T06:18:15.419Z,92.55
2023-01-18T06:21:18.069Z,93.10
2023-01-18T06:24:20.555Z,93.00
2023-01-18T06:27:23.028Z,93.01
2023-01-18T06:30:25.519Z,93.09
2023-01-18T06:33:30.377Z,93.08
2023-01-18T06:36:39.262Z,93.14
2023-01-18T06:39:41.546Z,92.51
2023-01-18T06:42:50.147Z,92.12
2023-01-18T06:45:54.093Z,90.31
2023-01-18T06:48:56.648Z,90.09
2023-01-18T06:51:59.077Z,91.12
2023-01-18T06:55:01.373Z,91.14
2023-01-18T06:58:04.729Z,90.51
2023-01-18T07:01:14.067Z,91.38
2023-01-18T07:04:16.777Z,91.21
2023-01-18T07:07:19.931Z,90.71
2023-01-18T07:10:25.211Z,90.78
2023-01-18T07:13:30.423Z,90.82
2023-01-18T07:16:36.725Z,90.64
2023-01-18T07:19:40.049Z,90.45
2023-01-18T07:22:50.551Z,90.41
2023-01-18T07:26:19.177Z,90.16
2023-01-18T07:29:22.097Z,89.82
2023-01-18T07:32:24.886Z,89.78
2023-01-18T07:35:29.371Z,89.67
2023-01-18T07:38:32.149Z,89.48
2023-01-18T07:41:34.886Z,90.08
2023-01-18T07:44:38.960Z,90.39
2023-01-18T07:47:42.771Z,90.74
2023-01-18T07:50:56.110Z,89.22
2023-01-18T07:54:01.429Z,87.43
2023-01-18T07:57:03.889Z,88.17
2023-01-18T08:00:07.341Z,87.80
2023-01-18T08:03:20.732Z,85.62
2023-01-18T08:06:27.850Z,83.52
2023-01-18T08:09:34.036Z,83.41
2023-01-18T08:12:36.358Z,81.55
2023-01-18T08:15:42.564Z,81.46
2023-01-18T08:18:48.485Z,80.86
2023-01-18T08:21:52.546Z,81.74
2023-01-18T08:24:57.561Z,81.77
2023-01-18T08:28:01.714Z,80.68
2023-01-18T08:31:13.550Z,81.11
2023-01-18T08:34:18.250Z,80.82
2023-01-18T08:37:20.511Z,80.56
2023-01-18T08:40:25.040Z,80.65
2023-01-18T08:43:29.216Z,79.25
2023-01-18T08:46:35.718Z,80.16
2023-01-18T08:49:39.561Z,80.34
2023-01-18T08:52:44.790Z,80.13
2023-01-18T08:55:47.026Z,79.59
2023-01-18T08:58:52.358Z,80.22
2023-01-18T09:01:57.472Z,78.12
2023-01-18T09:05:02.430Z,78.73
2023-01-18T09:08:05.266Z,78.91
2023-01-18T09:11:11.567Z,78.81
2023-01-18T09:14:15.453Z,77.27
2023-01-18T09:17:23.229Z,77.77
2023-01-18T09:20:27.143Z,77.21
2023-01-18T09:23:32.195Z,75.52
2023-01-18T09:26:34.590Z,76.15
2023-01-18T09:29:38.317Z,76.06
2023-01-18T09:32:42.372Z,76.67
2023-01-18T09:35:50.425Z,77.67
2023-01-18T09:38:52.958Z,77.73
2023-01-18T09:41:59.674Z,78.77
2023-01-18T09:45:05.799Z,80.26
2023-01-18T09:48:16.758Z,80.00
2023-01-18T09:51:26.749Z,80.10
2023-01-18T09:54:52.924Z,79.17
2023-01-18T09:58:09.221Z,78.06
2023-01-18T10:01:22.409Z,77.37
2023-01-18T10:04:38.385Z,75.94
2023-01-18T10:08:05.108Z,74.71
2023-01-18T10:11:17.123Z,74.06
2023-01-18T10:14:35.831Z,72.36
2023-01-18T10:17:42.336Z,70.20
2023-01-18T10:20:58.825Z,70.80
2023-01-18T10:24:19.339Z,70.73
2023-01-18T10:27:50.692Z,69.04
2023-01-18T10:31:29.335Z,67.11
2023-01-18T10:34:36.120Z,64.02
2023-01-18T10:37:46.710Z,63.78
2023-01-18T10:40:59.944Z,58.86
2023-01-18T10:44:04.854Z,56.55
2023-01-18T10:47:12.464Z,54.69
2023-01-18T10:50:34.401Z,54.21
2023-01-18T10:53:38.559Z,50.93
2023-01-18T10:56:46.778Z,49.29
2023-01-18T10:59:52.859Z,48.80
2023-01-18T11:02:59.288Z,50.25
2023-01-18T11:06:06.218Z,56.18
2023-01-18T11:09:42.454Z,61.31
2023-01-18T11:12:48.065Z,63.77
2023-01-18T11:16:05.353Z,65.88
2023-01-18T11:19:20.902Z,69.92
2023-01-18T11:22:24.496Z,70.55
2023-01-18T11:25:45.530Z,70.17
2023-01-18T11:29:03.011Z,69.85
2023-01-18T11:32:20.685Z,71.00
2023-01-18T11:35:30.499Z,70.46
2023-01-18T11:38:37.258Z,68.74
2023-01-18T11:41:39.602Z,66.47
2023-01-18T11:44:51.902Z,67.22
2023-01-18T11:48:13.843Z,66.80
2023-01-18T11:51:23.779Z,66.92
2023-01-18T11:54:31.729Z,66.03
2023-01-18T11:57:34.007Z,67.43
2023-01-18T12:00:55.982Z,67.44
2023-01-18T12:04:29.127Z,64.95
2023-01-18T12:07:42.052Z,61.75
2023-01-18T12:11:09.285Z,62.83
2023-01-18T12:14:34.047Z,64.41
2023-01-18T12:17:46.313Z,61.62
2023-01-18T12:21:03.991Z,61.12
2023-01-18T12:24:28.617Z,62.61
2023-01-18T12:27:42.513Z,62.97
2023-01-18T12:31:02.219Z,61.86
2023-01-18T12:34:18.245Z,61.52
2023-01-18T12:37:44.858Z,61.33
2023-01-18T12:41:04.978Z,60.64
2023-01-18T12:44:28.478Z,61.52
2023-01-18T12:47:42.714Z,61.30
2023-01-18T12:50:49.692Z,61.38
2023-01-18T12:54:00.017Z,60.30
2023-01-18T12:57:05.975Z,58.93
2023-01-18T13:00:32.168Z,60.10
2023-01-18T13:03:47.173Z,60.67
2023-01-18T13:07:00.710Z,61.37
2023-01-18T13:10:18.632Z,60.86
2023-01-18T13:13:30.679Z,62.18
2023-01-18T13:16:45.625Z,61.81
2023-01-18T13:20:00.499Z,62.22
2023-01-18T13:23:34.582Z,63.28
2023-01-18T13:26:38.278Z,63.60
2023-01-18T13:29:41.939Z,63.69
2023-01-18T13:32:54.533Z,64.67
2023-01-18T13:36:09.974Z,65.14
2023-01-18T13:39:21.920Z,65.41
2023-01-18T13:42:33.316Z,65.29
2023-01-18T13:46:05.480Z,65.73
2023-01-18T13:49:46.531Z,65.77
2023-01-18T13:53:14.885Z,65.71
2023-01-18T13:56:28.949Z,65.81
2023-01-18T13:59:46.734Z,66.75
2023-01-18T14:02:51.944Z,67.11
2023-01-18T14:05:59.042Z,68.83
2023-01-18T14:09:17.281Z,68.54
2023-01-18T14:12:46.524Z,67.80
2023-01-18T14:15:58.037Z,67.10
2023-01-18T14:19:05.560Z,67.85
2023-01-18T14:22:09.133Z,68.38
2023-01-18T14:25:48.034Z,69.92
2023-01-18T14:28:59.499Z,70.23
2023-01-18T14:32:08.854Z,70.12
2023-01-18T14:35:25.599Z,70.71
2023-01-18T14:38:31.068Z,72.06
2023-01-18T14:41:34.127Z,71.79
2023-01-18T14:44:57.812Z,72.49
2023-01-18T14:48:10.014Z,73.20
2023-01-18T14:51:18.236Z,73.20
2023-01-18T14:54:25.966Z,73.89
2023-01-18T14:57:28.467Z,74.35
2023-01-18T15:00:30.926Z,75.92
2023-01-18T15:03:33.320Z,75.79
2023-01-18T15:07:00.163Z,76.30
2023-01-18T15:10:02.771Z,76.04
2023-01-18T15:13:07.004Z,76.67
2023-01-18T15:16:10.810Z,77.48
2023-01-18T15:19:20.895Z,77.51
2023-01-18T15:22:29.638Z,77.23
2023-01-18T15:25:33.387Z,77.72
2023-01-18T15:28:35.995Z,78.10
2023-01-18T15:31:46.618Z,78.28
2023-01-18T15:34:51.093Z,77.75
2023-01-18T15:37:54.251Z,78.58
2023-01-18T15:41:12.278Z,78.31
2023-01-18T15:44:24.147Z,79.53
2023-01-18T15:47:33.466Z,78.71
2023-01-18T15:50:43.348Z,77.40
2023-01-18T15:53:52.518Z,76.99
2023-01-18T15:56:59.636Z,76.47
2023-01-18T16:00:03.709Z,75.95
2023-01-18T16:03:19.770Z,76.83
2023-01-18T16:06:22.113Z,77.32
2023-01-18T16:09:27.406Z,76.38
2023-01-18T16:12:37.669Z,77.16
2023-01-18T16:15:43.451Z,77.23
2023-01-18T16:18:54.123Z,77.49
2023-01-18T16:22:04.641Z,76.95
2023-01-18T16:25:18.570Z,76.02
2023-01-18T16:28:25.865Z,76.12
2023-01-18T16:31:35.064Z,76.11
2023-01-18T16:34:38.946Z,75.64
2023-01-18T16:37:44.510Z,76.58
2023-01-18T16:40:54.338Z,77.49
2023-01-18T16:43:57.470Z,77.40
2023-01-18T16:46:59.958Z,79.36
2023-01-18T16:50:15.607Z,79.17
2023-01-18T16:53:18.606Z,79.73
2023-01-18T16:56:26.852Z,80.30
2023-01-18T16:59:37.798Z,80.69
2023-01-18T17:02:40.221Z,81.47
2023-01-18T17:05:45.468Z,82.48
2023-01-18T17:08:51.955Z,82.32
2023-01-18T17:12:00.092Z,82.16
2023-01-18T17:15:03.726Z,82.50
2023-01-18T17:18:10.975Z,83.05
2023-01-18T17:21:13.473Z,83.30
2023-01-18T17:24:27.562Z,83.78
2023-01-18T17:27:34.490Z,83.71
2023-01-18T17:30:37.412Z,85.02
2023-01-18T17:33:41.103Z,84.15
2023-01-18T17:36:46.552Z,84.15
2023-01-18T17:40:10.913Z,84.64
2023-01-18T17:43:28.436Z,84.38
2023-01-18T17:46:42.359Z,84.82
2023-01-18T17:49:46.832Z,85.04
2023-01-18T17:52:49.214Z,84.83
2023-01-18T17:56:00.702Z,85.29
2023-01-18T17:59:05.072Z,84.90
2023-01-18T18:02:12.014Z,85.40
2023-01-18T18:05:17.579Z,85.27
2023-01-18T18:08:21.386Z,86.20
2023-01-18T18:11:29.788Z,86.95
2023-01-18T18:17:55.032Z,88.14
2023-01-18T18:21:00.826Z,87.75
2023-01-18T18:24:03.285Z,88.06
2023-01-18T18:27:08.183Z,87.95
2023-01-18T18:30:12.699Z,86.71
2023-01-18T18:33:27.234Z,85.97
2023-01-18T18:36:43.200Z,85.65
2023-01-18T18:43:06.022Z,84.84
2023-01-18T18:49:28.258Z,85.24
2023-01-18T18:52:30.895Z,86.05
2023-01-18T18:55:41.818Z,86.00
2023-01-18T18:58:46.067Z,86.99
2023-01-18T19:01:51.928Z,86.04
2023-01-18T19:04:54.313Z,85.98
2023-01-18T19:07:56.715Z,86.56
2023-01-18T19:10:58.991Z,86.88
2023-01-18T19:14:06.377Z,86.61
2023-01-18T19:17:10.220Z,85.83
2023-01-18T19:20:17.760Z,86.75
2023-01-18T19:23:20.970Z,87.25
2023-01-18T19:26:25.148Z,86.71
2023-01-18T19:29:39.441Z,87.09
2023-01-18T19:32:41.765Z,87.52
2023-01-18T19:35:51.693Z,87.49
2023-01-18T19:38:59.940Z,87.73
2023-01-18T19:42:05.663Z,87.33
2023-01-18T19:45:11.428Z,88.04
2023-01-18T19:48:18.878Z,88.56
2023-01-18T19:51:23.434Z,87.94
2023-01-18T19:54:25.979Z,89.14
2023-01-18T19:57:34.314Z,89.47
2023-01-18T20:00:36.612Z,90.23
2023-01-18T20:03:41.076Z,90.50
2023-01-18T20:06:46.022Z,90.42
2023-01-18T20:09:48.321Z,90.67
2023-01-18T20:12:50.973Z,90.78
2023-01-18T20:15:59.448Z,90.53
2023-01-18T20:19:03.099Z,90.98
2023-01-18T20:22:09.612Z,91.12
2023-01-18T20:25:14.717Z,91.20
2023-01-18T20:28:17.337Z,91.76
2023-01-18T20:31:22.735Z,91.85
2023-01-18T20:34:28.792Z,92.08
2023-01-18T20:37:33.743Z,92.36
2023-01-18T20:40:41.842Z,92.28
2023-01-18T20:43:47.139Z,92.98
2023-01-18T20:46:55.042Z,93.08
2023-01-18T20:50:02.525Z,93.12
2023-01-18T20:53:08.261Z,93.32
2023-01-18T20:56:28.356Z,92.98
2023-01-18T20:59:33.888Z,93.48
2023-01-18T21:02:39.930Z,93.20
2023-01-18T21:06:05.380Z,92.99
2023-01-18T21:09:15.442Z,93.32
2023-01-18T21:12:17.952Z,93.10
2023-01-18T21:15:22.944Z,93.18
2023-01-18T21:18:26.179Z,92.87
2023-01-18T21:21:29.710Z,93.14
2023-01-18T21:24:37.068Z,93.31
2023-01-18T21:27:43.635Z,93.14
2023-01-18T21:30:46.762Z,93.21
2023-01-18T21:33:49.768Z,93.25
2023-01-18T21:36:55.944Z,93.08
2023-01-18T21:39:58.309Z,93.32
2023-01-18T21:43:21.222Z,93.24
2023-01-18T21:46:23.540Z,93.64
2023-01-18T21:50:15.398Z,93.50
2023-01-18T21:53:34.278Z,93.55
2023-01-18T21:56:42.545Z,93.38
2023-01-18T21:59:45.995Z,93.60
2023-01-18T22:02:50.074Z,93.65
2023-01-18T22:05:58.326Z,93.82
2023-01-18T22:09:00.765Z,93.44
2023-01-18T22:12:12.033Z,94.00
2023-01-18T22:15:17.135Z,93.83
2023-01-18T22:18:19.443Z,93.74
2023-01-18T22:21:28.967Z,93.31
2023-01-18T22:24:33.235Z,93.81
2023-01-18T22:27:35.876Z,93.97
2023-01-18T22:30:43.058Z,93.66
2023-01-18T22:33:48.988Z,93.74
2023-01-18T22:36:51.527Z,93.31
2023-01-18T22:39:56.023Z,93.45
2023-01-18T22:43:01.060Z,93.35
2023-01-18T22:46:10.822Z,93.60
2023-01-18T22:49:13.976Z,93.92
2023-01-18T22:52:16.264Z,93.93
2023-01-18T22:55:29.839Z,94.28
2023-01-18T22:58:35.094Z,94.21
2023-01-18T23:01:37.605Z,94.30
2023-01-18T23:04:41.228Z,94.20
2023-01-18T23:07:45.805Z,94.22
2023-01-18T23:10:58.471Z,94.34
2023-01-18T23:14:22.481Z,94.44
2023-01-18T23:17:40.124Z,94.26
2023-01-18T23:20:42.456Z,93.93
2023-01-18T23:23:47.120Z,93.94
2023-01-18T23:26:50.502Z,93.79
2023-01-18T23:29:57.468Z,93.90
2023-01-18T23:33:00.006Z,93.84
2023-01-18T23:36:06.455Z,93.93
2023-01-18T23:39:30.415Z,93.98
2023-01-18T23:42:51.461Z,93.94
2023-01-18T23:46:15.174Z,93.72
2023-01-18T23:49:37.575Z,93.64
2023-01-18T23:52:58.854Z,93.79
2023-01-18T23:56:03.588Z,94.13
2023-01-18T23:59:09.219Z,93.75
